Time,TemperatureF,DewpointF,PressureIn,WindDirection,WindDirectionDegrees,WindSpeedMPH,WindSpeedGustMPH,Humidity,HourlyPrecipIn,Conditions,Clouds,dailyrainin,SoftwareType,DateUTC
2017-03-23 00:09:00,37.0,17.0,30.41,SE,132,0.0,0.0,43,-99.99,,,-99.99,,2017-03-23 04:09:00,
2017-03-23 00:27:00,37.0,16.0,30.42,SE,132,0.0,0.0,42,-99.99,,,-99.99,,2017-03-23 04:27:00,
2017-03-23 00:48:00,38.0,17.0,30.42,NNE,32,0.0,0.0,42,-99.99,,,-99.99,,2017-03-23 04:48:00,
2017-03-23 01:09:00,37.0,17.0,30.42,East,101,0.0,0.0,43,-99.99,,,-99.99,,2017-03-23 05:09:00,
2017-03-23 01:27:00,36.0,16.0,30.43,ESE,104,0.0,1.0,44,-99.99,,,-99.99,,2017-03-23 05:27:00,
2017-03-23 02:09:00,35.0,16.0,30.44,ENE,77,0.0,0.0,46,-99.99,,,-99.99,,2017-03-23 06:09:00,
2017-03-23 02:27:00,34.0,16.0,30.45,ENE,75,0.0,0.0,47,-99.99,,,-99.99,,2017-03-23 06:27:00,
2017-03-23 03:27:00,34.0,15.0,30.46,NNE,14,0.0,0.0,46,-99.99,,,-99.99,,2017-03-23 07:27:00,
2017-03-23 04:38:00,32.0,15.0,30.46,ENE,72,0.0,1.0,48,-99.99,,,-99.99,,2017-03-23 08:38:00,
2017-03-23 05:27:00,32.0,14.0,30.47,NNE,15,0.0,-999.0,47,-99.99,,,-99.99,,2017-03-23 09:27:00,
2017-03-23 06:09:00,30.0,14.0,30.49,NE,53,0.0,1.0,51,-99.99,,,-99.99,,2017-03-23 10:09:00,
2017-03-23 06:27:00,30.0,14.0,30.50,East,79,0.0,0.0,50,-99.99,,,-99.99,,2017-03-23 10:27:00,
2017-03-23 07:09:00,29.0,14.0,30.52,East,79,0.0,0.0,53,-99.99,,,-99.99,,2017-03-23 11:09:00,
2017-03-23 07:28:00,29.0,14.0,30.53,East,79,0.0,0.0,53,-99.99,,,-99.99,,2017-03-23 11:28:00,
2017-03-23 07:58:00,28.0,14.0,30.55,East,79,0.0,0.0,55,-99.99,,,-99.99,,2017-03-23 11:58:00,
2017-03-23 08:27:00,28.0,15.0,30.57,NNE,23,0.0,0.0,57,-99.99,,,-99.99,,2017-03-23 12:27:00,
2017-03-23 08:38:00,30.0,15.0,30.57,NE,37,0.0,1.0,54,-99.99,,,-99.99,,2017-03-23 12:38:00,
2017-03-23 08:57:00,32.0,14.0,30.58,NNE,12,0.0,3.0,47,-99.99,,,-99.99,,2017-03-23 12:57:00,
2017-03-23 10:09:00,38.0,12.0,30.59,NE,49,0.0,6.0,34,-99.99,,,-99.99,,2017-03-23 14:09:00,
2017-03-23 10:28:00,39.0,12.0,30.59,East,97,3.0,7.0,33,-99.99,,,-99.99,,2017-03-23 14:28:00,
2017-03-23 12:09:00,43.0,14.0,30.58,SSW,208,3.0,10.0,30,-99.99,,,-99.99,,2017-03-23 16:09:00,
2017-03-23 12:30:00,44.0,16.0,30.57,South,169,0.0,4.0,32,-99.99,,,-99.99,,2017-03-23 16:30:00,
2017-03-23 13:19:00,45.0,15.0,30.55,SW,236,0.0,7.0,29,-99.99,,,-99.99,,2017-03-23 17:19:00,
2017-03-23 13:40:00,47.0,17.0,30.55,WSW,246,1.0,-999.0,30,-99.99,,,-99.99,,2017-03-23 17:40:00,
2017-03-23 14:09:00,48.0,19.0,30.54,NE,52,2.0,8.0,31,-99.99,,,-99.99,,2017-03-23 18:09:00,
2017-03-23 14:27:00,49.0,17.0,30.54,SSW,211,3.0,-999.0,28,-99.99,,,-99.99,,2017-03-23 18:27:00,
2017-03-23 15:18:00,51.0,21.0,30.52,WSW,242,2.0,6.0,30,-99.99,,,-99.99,,2017-03-23 19:18:00,
2017-03-23 15:57:00,50.0,20.0,30.50,SSW,198,5.0,9.0,30,-99.99,,,-99.99,,2017-03-23 19:57:00,
2017-03-23 16:50:00,51.0,20.0,30.50,WNW,285,4.0,-999.0,29,-99.99,,,-99.99,,2017-03-23 20:50:00,